Hlavní strana
METAR-TAF:

METAR-TAF

Letiště :

Las Vegas, Nevada, Spojené státy americké

zeměpisná šířka: 36-04-44N, zeměpisná délka: 115-09-19W, výška: 663 m

Aktuální stav počasí

Zpráva byla vytvořena před 56 minutami, v 09:56 UTC
Jihojihozápadní vítr 5 kt
Teplota 30°C
Vlhkost vzduchu 15%
Tlak 1009 hPa
Viditelnost: 16.1 km
Jasno

METAR: KLAS 040956Z 21005KT 10SM CLR 30/01 A2980 RMK AO2 SLP058 T03000006

Čas: 03:52 (10:52 UTC)

Předpověď počasí

Zpráva byla vytvořena před 1 hodinou a 48 minutami, v 09:04 UTC
Předpověď platná od 04 v 09 UTC do 05 v 12 UTC
Severozápadní vítr 5 kt
Viditelnost: 10 km
Jasno
Od 04 v 1500 UTC
vítr z různých směrů 5 kt
Viditelnost: 10 km
Jasno
Od 04 v 2000 UTC
Jižní vítr 13 kt s nárazy do 23 kt
Viditelnost: 10 km
Skoro jasno ve výšce 13000 ft
Od 05 v 0400 UTC
Jižní vítr 11 kt
Viditelnost: 10 km
Polojasno ve výšce 25000 ft

TAF: KLAS 040904Z 0409/0512 32005KT P6SM SKC FM041500 VRB05KT P6SM SKC FM042000 19013G23KT P6SM FEW130 FM050400 19011KT P6SM SCT250

Stav a předpovědi počasí z více než 4 000 letišť (zprávy METAR a TAF).

Červené a žluté tečky na mapě představují dostupné meteorologické stanice.

Když kurzor umístíte na tečku, zobrazí se název stanice.

Pak kliknutím zobrazíte stav a předpověď počasí.

Chcete-li změnit mapu, kliknutím na zelené tlačítko se znaménkem +mapu přiblížíte, kliknutím na zelené tlačítko se znaménkem – mapu oddálíte a kliknutím na zelené šipky přejdete na sousední mapy.


METAR-TAF: